sensor_id;sensor_type;location;lat;lon;timestamp;pressure;altitude;pressure_sealevel;temperature;humidity
50250;BME280;36133;42.522;27.456;2023-02-18T00:01:54;101968.09;;;10.34;45.90
50250;BME280;36133;42.522;27.456;2023-02-18T00:04:20;101997.97;;;10.05;47.44
50250;BME280;36133;42.522;27.456;2023-02-18T00:06:45;102034.34;;;10.46;47.20
50250;BME280;36133;42.522;27.456;2023-02-18T00:09:11;102015.66;;;10.53;46.91
50250;BME280;36133;42.522;27.456;2023-02-18T00:11:37;102022.59;;;10.73;46.24
50250;BME280;36133;42.522;27.456;2023-02-18T00:14:05;101844.38;;;10.12;44.72
50250;BME280;36133;42.522;27.456;2023-02-18T00:16:31;102036.69;;;11.03;44.71
50250;BME280;36133;42.522;27.456;2023-02-18T00:19:02;102030.94;;;11.74;43.18
50250;BME280;36133;42.522;27.456;2023-02-18T00:21:28;102021.53;;;10.66;44.43
50250;BME280;36133;42.522;27.456;2023-02-18T00:23:54;101985.22;;;10.43;44.08
50250;BME280;36133;42.522;27.456;2023-02-18T00:26:20;102038.50;;;10.23;45.53
50250;BME280;36133;42.522;27.456;2023-02-18T00:28:46;102017.91;;;10.40;44.96
50250;BME280;36133;42.522;27.456;2023-02-18T00:31:24;102040.22;;;9.96;46.26
50250;BME280;36133;42.522;27.456;2023-02-18T00:33:50;101970.56;;;9.37;46.51
50250;BME280;36133;42.522;27.456;2023-02-18T00:36:17;101866.09;;;8.57;46.73
50250;BME280;36133;42.522;27.456;2023-02-18T00:38:48;101708.56;;;7.69;46.47
50250;BME280;36133;42.522;27.456;2023-02-18T00:41:15;101925.19;;;8.95;46.07
50250;BME280;36133;42.522;27.456;2023-02-18T00:43:40;102009.47;;;9.62;45.99
50250;BME280;36133;42.522;27.456;2023-02-18T00:46:06;101914.72;;;8.92;46.03
50250;BME280;36133;42.522;27.456;2023-02-18T00:48:32;101959.03;;;9.07;45.88
50250;BME280;36133;42.522;27.456;2023-02-18T00:50:58;101754.53;;;8.22;45.36
50250;BME280;36133;42.522;27.456;2023-02-18T00:53:25;101654.81;;;7.59;45.40
50250;BME280;36133;42.522;27.456;2023-02-18T00:55:51;101851.47;;;8.96;45.29
50250;BME280;36133;42.522;27.456;2023-02-18T00:58:17;101996.19;;;9.96;45.05
50250;BME280;36133;42.522;27.456;2023-02-18T01:00:43;101690.09;;;8.58;44.70
50250;BME280;36133;42.522;27.456;2023-02-18T01:03:09;101966.75;;;10.20;45.28
50250;BME280;36133;42.522;27.456;2023-02-18T01:05:36;101985.66;;;10.38;45.07
50250;BME280;36133;42.522;27.456;2023-02-18T01:08:02;101979.09;;;10.59;44.26
50250;BME280;36133;42.522;27.456;2023-02-18T01:10:28;101955.50;;;10.43;43.90
50250;BME280;36133;42.522;27.456;2023-02-18T01:12:54;101965.19;;;10.00;45.08
50250;BME280;36133;42.522;27.456;2023-02-18T01:15:20;101972.16;;;10.20;44.97
50250;BME280;36133;42.522;27.456;2023-02-18T01:17:46;101961.38;;;10.20;45.17
50250;BME280;36133;42.522;27.456;2023-02-18T01:20:13;101955.31;;;10.62;44.81
50250;BME280;36133;42.522;27.456;2023-02-18T01:22:39;101961.41;;;10.64;44.58
50250;BME280;36133;42.522;27.456;2023-02-18T01:25:05;101600.41;;;8.39;44.60
50250;BME280;36133;42.522;27.456;2023-02-18T01:27:30;101935.28;;;9.76;46.17
50250;BME280;36133;42.522;27.456;2023-02-18T01:29:56;101883.88;;;9.32;46.33
50250;BME280;36133;42.522;27.456;2023-02-18T01:32:21;101895.03;;;9.47;46.66
50250;BME280;36133;42.522;27.456;2023-02-18T01:34:47;101924.66;;;9.74;46.52
50250;BME280;36133;42.522;27.456;2023-02-18T01:37:13;101899.06;;;9.60;46.52
50250;BME280;36133;42.522;27.456;2023-02-18T01:39:38;101934.22;;;9.41;47.96
50250;BME280;36133;42.522;27.456;2023-02-18T01:42:05;101887.31;;;9.34;48.48
50250;BME280;36133;42.522;27.456;2023-02-18T01:44:33;101933.25;;;9.60;49.35
50250;BME280;36133;42.522;27.456;2023-02-18T01:46:59;101923.81;;;8.91;50.96
50250;BME280;36133;42.522;27.456;2023-02-18T01:49:31;101889.13;;;9.06;49.99
50250;BME280;36133;42.522;27.456;2023-02-18T01:52:18;101924.66;;;9.74;48.93
50250;BME280;36133;42.522;27.456;2023-02-18T01:54:51;101926.97;;;9.14;50.52
50250;BME280;36133;42.522;27.456;2023-02-18T01:57:23;101886.03;;;9.28;50.22
50250;BME280;36133;42.522;27.456;2023-02-18T01:59:57;101852.94;;;9.08;50.84
50250;BME280;36133;42.522;27.456;2023-02-18T02:02:27;101931.19;;;9.44;50.29
50250;BME280;36133;42.522;27.456;2023-02-18T02:04:54;101860.25;;;8.98;50.12
50250;BME280;36133;42.522;27.456;2023-02-18T02:07:22;101908.31;;;9.58;49.95
50250;BME280;36133;42.522;27.456;2023-02-18T02:09:50;101936.09;;;9.31;50.88
50250;BME280;36133;42.522;27.456;2023-02-18T02:27:40;101894.19;;;9.99;49.59
50250;BME280;36133;42.522;27.456;2023-02-18T02:29:38;101740.13;;;8.60;50.59
50250;BME280;36133;42.522;27.456;2023-02-18T02:37:40;101744.06;;;8.38;51.27
50250;BME280;36133;42.522;27.456;2023-02-18T02:43:11;101760.75;;;8.42;51.58
50250;BME280;36133;42.522;27.456;2023-02-18T02:46:17;101947.53;;;9.70;51.41
50250;BME280;36133;42.522;27.456;2023-02-18T02:51:58;101958.16;;;9.72;50.95
50250;BME280;36133;42.522;27.456;2023-02-18T02:54:27;101933.78;;;9.63;51.34
50250;BME280;36133;42.522;27.456;2023-02-18T02:59:58;101947.53;;;9.70;50.12
50250;BME280;36133;42.522;27.456;2023-02-18T03:02:48;101928.03;;;9.76;48.58
50250;BME280;36133;42.522;27.456;2023-02-18T03:08:22;101930.47;;;10.59;47.06
50250;BME280;36133;42.522;27.456;2023-02-18T03:11:03;101948.69;;;10.03;47.83
50250;BME280;36133;42.522;27.456;2023-02-18T03:16:29;101761.44;;;9.52;46.43
50250;BME280;36133;42.522;27.456;2023-02-18T03:19:00;101935.06;;;10.40;46.68
50250;BME280;36133;42.522;27.456;2023-02-18T03:21:44;101942.13;;;10.59;46.30
50250;BME280;36133;42.522;27.456;2023-02-18T03:26:48;101921.47;;;10.50;46.38
50250;BME280;36133;42.522;27.456;2023-02-18T03:29:17;101900.44;;;10.00;47.21
50250;BME280;36133;42.522;27.456;2023-02-18T03:31:46;101749.88;;;9.42;46.30
50250;BME280;36133;42.522;27.456;2023-02-18T03:34:22;101935.38;;;10.37;47.10
50250;BME280;36133;42.522;27.456;2023-02-18T03:36:49;101912.38;;;9.80;47.73
50250;BME280;36133;42.522;27.456;2023-02-18T03:39:17;101891.88;;;9.69;47.62
50250;BME280;36133;42.522;27.456;2023-02-18T03:41:43;101936.16;;;9.94;47.44
50250;BME280;36133;42.522;27.456;2023-02-18T03:44:09;101903.38;;;10.24;46.27
50250;BME280;36133;42.522;27.456;2023-02-18T03:46:37;101854.06;;;9.61;46.74
50250;BME280;36133;42.522;27.456;2023-02-18T03:49:03;101946.00;;;9.85;47.39
50250;BME280;36133;42.522;27.456;2023-02-18T03:51:29;101934.63;;;9.46;48.12
50250;BME280;36133;42.522;27.456;2023-02-18T03:53:55;101677.59;;;7.55;49.23
50250;BME280;36133;42.522;27.456;2023-02-18T03:56:20;101824.88;;;8.46;49.02
50250;BME280;36133;42.522;27.456;2023-02-18T03:58:46;101817.78;;;7.79;50.14
50250;BME280;36133;42.522;27.456;2023-02-18T04:01:12;101912.56;;;8.59;50.27
50250;BME280;36133;42.522;27.456;2023-02-18T04:03:38;101833.75;;;7.90;50.69
50250;BME280;36133;42.522;27.456;2023-02-18T04:09:25;101924.75;;;9.09;49.36
50250;BME280;36133;42.522;27.456;2023-02-18T04:11:51;101790.75;;;8.47;49.07
50250;BME280;36133;42.522;27.456;2023-02-18T04:14:16;101727.94;;;8.19;48.92
50250;BME280;36133;42.522;27.456;2023-02-18T04:16:42;101830.09;;;8.58;49.35
50250;BME280;36133;42.522;27.456;2023-02-18T04:19:08;101935.75;;;8.79;50.40
50250;BME280;36133;42.522;27.456;2023-02-18T04:21:33;101712.31;;;7.85;49.84
50250;BME280;36133;42.522;27.456;2023-02-18T04:23:59;101564.94;;;7.24;48.76
50250;BME280;36133;42.522;27.456;2023-02-18T04:26:26;101883.25;;;8.93;49.27
50250;BME280;36133;42.522;27.456;2023-02-18T04:28:51;101799.56;;;8.39;49.35
50250;BME280;36133;42.522;27.456;2023-02-18T04:31:17;101933.50;;;9.39;49.22
50250;BME280;36133;42.522;27.456;2023-02-18T04:33:42;101902.06;;;9.30;48.91
50250;BME280;36133;42.522;27.456;2023-02-18T04:36:08;101929.69;;;9.04;49.80
50250;BME280;36133;42.522;27.456;2023-02-18T04:38:34;101890.91;;;9.25;49.14
50250;BME280;36133;42.522;27.456;2023-02-18T04:41:00;101841.38;;;8.71;49.85
50250;BME280;36133;42.522;27.456;2023-02-18T04:43:25;101881.50;;;9.29;49.37
50250;BME280;36133;42.522;27.456;2023-02-18T04:45:51;101821.41;;;8.17;50.52
50250;BME280;36133;42.522;27.456;2023-02-18T04:48:16;101890.91;;;8.50;51.32
50250;BME280;36133;42.522;27.456;2023-02-18T04:50:43;101867.69;;;9.14;49.78
50250;BME280;36133;42.522;27.456;2023-02-18T04:53:08;101906.66;;;9.20;49.63
50250;BME280;36133;42.522;27.456;2023-02-18T04:55:34;101886.56;;;9.14;49.76
50250;BME280;36133;42.522;27.456;2023-02-18T04:58:00;101876.28;;;8.63;51.06
50250;BME280;36133;42.522;27.456;2023-02-18T05:00:25;101732.28;;;7.92;50.70
50250;BME280;36133;42.522;27.456;2023-02-18T05:02:52;101841.19;;;8.35;51.58
50250;BME280;36133;42.522;27.456;2023-02-18T05:05:18;101722.59;;;8.09;50.84
50250;BME280;36133;42.522;27.456;2023-02-18T05:07:43;101614.72;;;7.28;50.85
50250;BME280;36133;42.522;27.456;2023-02-18T05:10:10;101865.13;;;9.40;49.87
50250;BME280;36133;42.522;27.456;2023-02-18T05:12:38;101736.69;;;8.21;51.06
50250;BME280;36133;42.522;27.456;2023-02-18T05:15:05;101888.50;;;9.22;51.17
50250;BME280;36133;42.522;27.456;2023-02-18T05:17:30;101884.31;;;9.09;50.55
50250;BME280;36133;42.522;27.456;2023-02-18T05:19:56;101827.91;;;8.71;51.55
50250;BME280;36133;42.522;27.456;2023-02-18T05:22:21;101827.28;;;8.87;51.04
50250;BME280;36133;42.522;27.456;2023-02-18T05:24:47;101893.38;;;9.36;51.04
50250;BME280;36133;42.522;27.456;2023-02-18T05:27:12;101748.28;;;8.31;51.26
50250;BME280;36133;42.522;27.456;2023-02-18T05:29:38;101902.00;;;9.39;50.84
50250;BME280;36133;42.522;27.456;2023-02-18T05:32:03;101854.63;;;8.55;52.16
50250;BME280;36133;42.522;27.456;2023-02-18T05:34:29;101893.53;;;9.34;50.94
50250;BME280;36133;42.522;27.456;2023-02-18T05:36:54;101815.44;;;8.70;51.18
50250;BME280;36133;42.522;27.456;2023-02-18T05:39:20;101902.47;;;9.35;50.85
50250;BME280;36133;42.522;27.456;2023-02-18T05:41:45;101893.81;;;9.31;50.78
50250;BME280;36133;42.522;27.456;2023-02-18T05:44:11;101586.41;;;7.81;49.81
50250;BME280;36133;42.522;27.456;2023-02-18T05:46:56;101894.94;;;9.56;50.54
50250;BME280;36133;42.522;27.456;2023-02-18T05:49:22;101859.09;;;9.28;50.51
50250;BME280;36133;42.522;27.456;2023-02-18T05:51:48;101606.19;;;8.17;49.87
50250;BME280;36133;42.522;27.456;2023-02-18T05:54:14;101888.34;;;9.86;49.47
50250;BME280;36133;42.522;27.456;2023-02-18T05:56:39;101777.91;;;9.85;48.30
50250;BME280;36133;42.522;27.456;2023-02-18T05:59:05;101813.97;;;9.84;49.11
50250;BME280;36133;42.522;27.456;2023-02-18T06:01:31;101871.31;;;10.73;48.29
50250;BME280;36133;42.522;27.456;2023-02-18T06:03:56;101873.59;;;10.60;48.58
50250;BME280;36133;42.522;27.456;2023-02-18T06:06:22;101801.50;;;9.83;49.73
50250;BME280;36133;42.522;27.456;2023-02-18T06:08:48;101873.97;;;10.04;49.68
50250;BME280;36133;42.522;27.456;2023-02-18T06:11:13;101707.09;;;9.21;49.49
50250;BME280;36133;42.522;27.456;2023-02-18T06:13:39;101873.81;;;11.01;47.78
50250;BME280;36133;42.522;27.456;2023-02-18T06:16:04;101760.31;;;10.59;47.00
50250;BME280;36133;42.522;27.456;2023-02-18T06:18:30;101771.94;;;10.51;47.41
50250;BME280;36133;42.522;27.456;2023-02-18T06:20:56;101686.88;;;9.61;48.24
50250;BME280;36133;42.522;27.456;2023-02-18T06:23:21;101889.56;;;11.56;46.57
50250;BME280;36133;42.522;27.456;2023-02-18T06:25:50;101853.56;;;11.13;47.18
50250;BME280;36133;42.522;27.456;2023-02-18T06:28:16;101875.59;;;12.33;44.97
50250;BME280;36133;42.522;27.456;2023-02-18T06:30:41;101709.34;;;10.64;46.23
50250;BME280;36133;42.522;27.456;2023-02-18T06:33:08;101840.25;;;12.02;45.00
50250;BME280;36133;42.522;27.456;2023-02-18T06:35:33;101822.78;;;12.38;44.07
50250;BME280;36133;42.522;27.456;2023-02-18T06:37:59;101871.84;;;12.51;45.43
50250;BME280;36133;42.522;27.456;2023-02-18T06:40:25;101770.50;;;13.07;43.13
50250;BME280;36133;42.522;27.456;2023-02-18T06:42:50;101790.88;;;12.56;43.88
50250;BME280;36133;42.522;27.456;2023-02-18T06:45:16;101823.78;;;12.92;44.24
50250;BME280;36133;42.522;27.456;2023-02-18T06:47:42;101824.69;;;12.76;43.99
50250;BME280;36133;42.522;27.456;2023-02-18T06:50:08;101777.06;;;12.43;44.78
50250;BME280;36133;42.522;27.456;2023-02-18T06:52:33;101870.97;;;13.76;43.05
50250;BME280;36133;42.522;27.456;2023-02-18T06:54:59;101880.94;;;13.84;43.39
50250;BME280;36133;42.522;27.456;2023-02-18T06:57:25;101875.56;;;13.22;44.70
50250;BME280;36133;42.522;27.456;2023-02-18T06:59:50;101823.34;;;13.51;43.02
50250;BME280;36133;42.522;27.456;2023-02-18T07:02:16;101864.78;;;13.36;44.31
50250;BME280;36133;42.522;27.456;2023-02-18T07:04:41;101867.31;;;13.38;44.34
50250;BME280;36133;42.522;27.456;2023-02-18T07:07:07;101839.34;;;12.98;44.54
50250;BME280;36133;42.522;27.456;2023-02-18T07:09:32;101696.66;;;12.35;44.19
50250;BME280;36133;42.522;27.456;2023-02-18T07:11:58;101592.59;;;12.60;42.69
50250;BME280;36133;42.522;27.456;2023-02-18T07:14:23;101795.94;;;13.37;43.40
50250;BME280;36133;42.522;27.456;2023-02-18T07:16:49;101850.72;;;14.77;41.79
50250;BME280;36133;42.522;27.456;2023-02-18T07:19:15;101866.41;;;13.99;43.41
50250;BME280;36133;42.522;27.456;2023-02-18T07:21:41;101628.50;;;12.63;42.85
50250;BME280;36133;42.522;27.456;2023-02-18T07:24:07;101688.28;;;13.38;42.53
50250;BME280;36133;42.522;27.456;2023-02-18T07:26:32;101630.78;;;12.74;42.97
50250;BME280;36133;42.522;27.456;2023-02-18T07:28:58;101734.50;;;13.67;43.10
50250;BME280;36133;42.522;27.456;2023-02-18T07:31:24;101815.38;;;14.91;41.29
50250;BME280;36133;42.522;27.456;2023-02-18T07:33:49;101705.47;;;13.30;43.34
50250;BME280;36133;42.522;27.456;2023-02-18T07:36:15;101843.41;;;14.48;42.71
50250;BME280;36133;42.522;27.456;2023-02-18T07:38:40;101834.72;;;14.29;43.04
50250;BME280;36133;42.522;27.456;2023-02-18T07:41:06;101629.34;;;13.84;41.25
50250;BME280;36133;42.522;27.456;2023-02-18T07:43:31;101372.72;;;11.65;42.38
50250;BME280;36133;42.522;27.456;2023-02-18T07:45:57;101686.00;;;14.46;41.18
50250;BME280;36133;42.522;27.456;2023-02-18T07:48:23;101740.91;;;14.56;41.24
50250;BME280;36133;42.522;27.456;2023-02-18T07:50:48;101223.34;;;11.55;41.35
50250;BME280;36133;42.522;27.456;2023-02-18T07:53:15;101818.69;;;15.23;41.09
50250;BME280;36133;42.522;27.456;2023-02-18T07:55:41;101579.06;;;13.59;40.78
50250;BME280;36133;42.522;27.456;2023-02-18T07:58:21;101725.19;;;14.29;41.67
50250;BME280;36133;42.522;27.456;2023-02-18T08:00:47;101797.31;;;15.20;40.72
50250;BME280;36133;42.522;27.456;2023-02-18T08:03:18;101768.78;;;14.65;41.54
50250;BME280;36133;42.522;27.456;2023-02-18T08:05:47;101810.41;;;14.95;41.21
50250;BME280;36133;42.522;27.456;2023-02-18T08:08:14;101824.16;;;15.80;39.87
50250;BME280;36133;42.522;27.456;2023-02-18T08:10:40;101829.50;;;15.02;41.64
50250;BME280;36133;42.522;27.456;2023-02-18T08:13:06;101671.78;;;14.80;40.10
50250;BME280;36133;42.522;27.456;2023-02-18T08:15:32;101825.69;;;14.96;41.41
50250;BME280;36133;42.522;27.456;2023-02-18T08:17:57;101818.09;;;14.91;41.78
50250;BME280;36133;42.522;27.456;2023-02-18T08:20:23;101695.72;;;14.26;41.28
50250;BME280;36133;42.522;27.456;2023-02-18T08:22:48;101769.88;;;14.26;42.38
50250;BME280;36133;42.522;27.456;2023-02-18T08:25:14;101816.59;;;15.04;41.43
50250;BME280;36133;42.522;27.456;2023-02-18T08:27:40;101808.56;;;15.96;39.82
50250;BME280;36133;42.522;27.456;2023-02-18T08:30:06;101748.47;;;15.12;40.57
50250;BME280;36133;42.522;27.456;2023-02-18T08:32:31;101781.91;;;15.48;39.97
50250;BME280;36133;42.522;27.456;2023-02-18T08:35:00;101753.19;;;14.88;41.07
50250;BME280;36133;42.522;27.456;2023-02-18T08:37:26;101659.06;;;14.51;40.47
50250;BME280;36133;42.522;27.456;2023-02-18T08:39:51;101808.06;;;14.92;41.12
50250;BME280;36133;42.522;27.456;2023-02-18T08:42:17;101602.41;;;14.48;39.90
50250;BME280;36133;42.522;27.456;2023-02-18T08:44:44;101487.53;;;14.82;38.16
50250;BME280;36133;42.522;27.456;2023-02-18T08:47:10;101797.75;;;16.99;38.08
50250;BME280;36133;42.522;27.456;2023-02-18T08:49:38;101589.63;;;15.90;37.06
50250;BME280;36133;42.522;27.456;2023-02-18T08:52:04;101813.19;;;15.95;39.63
50250;BME280;36133;42.522;27.456;2023-02-18T08:54:30;101785.22;;;16.36;38.53
50250;BME280;36133;42.522;27.456;2023-02-18T08:56:56;101580.28;;;15.71;37.92
50250;BME280;36133;42.522;27.456;2023-02-18T08:59:24;101706.94;;;15.46;39.31
50250;BME280;36133;42.522;27.456;2023-02-18T09:01:50;101806.22;;;15.65;40.18
50250;BME280;36133;42.522;27.456;2023-02-18T09:04:16;101802.25;;;15.67;40.15
50250;BME280;36133;42.522;27.456;2023-02-18T09:06:42;101701.28;;;16.25;38.17
50250;BME280;36133;42.522;27.456;2023-02-18T09:09:07;101358.66;;;15.52;36.15
50250;BME280;36133;42.522;27.456;2023-02-18T09:11:34;101655.28;;;17.31;35.59
50250;BME280;36133;42.522;27.456;2023-02-18T09:14:00;101710.50;;;18.19;34.64
50250;BME280;36133;42.522;27.456;2023-02-18T09:16:27;101510.00;;;17.35;34.28
50250;BME280;36133;42.522;27.456;2023-02-18T09:18:54;101576.78;;;18.17;33.96
50250;BME280;36133;42.522;27.456;2023-02-18T09:21:20;101700.28;;;19.35;32.88
50250;BME280;36133;42.522;27.456;2023-02-18T09:23:48;101778.59;;;20.67;31.73
50250;BME280;36133;42.522;27.456;2023-02-18T09:26:16;101576.63;;;19.13;32.17
50250;BME280;36133;42.522;27.456;2023-02-18T09:28:43;101747.59;;;20.67;31.31
50250;BME280;36133;42.522;27.456;2023-02-18T09:31:11;101679.22;;;19.36;32.62
50250;BME280;36133;42.522;27.456;2023-02-18T09:33:39;101574.38;;;19.78;31.83
50250;BME280;36133;42.522;27.456;2023-02-18T09:36:06;101720.09;;;22.74;29.07
50250;BME280;36133;42.522;27.456;2023-02-18T09:38:33;101453.72;;;20.45;29.58
50250;BME280;36133;42.522;27.456;2023-02-18T09:41:00;101492.94;;;20.15;30.19
50250;BME280;36133;42.522;27.456;2023-02-18T09:43:31;101705.91;;;20.58;31.42
50250;BME280;36133;42.522;27.456;2023-02-18T09:45:59;101275.88;;;18.00;31.19
50250;BME280;36133;42.522;27.456;2023-02-18T09:48:35;101732.19;;;21.32;30.99
50250;BME280;36133;42.522;27.456;2023-02-18T09:51:01;101495.19;;;20.37;29.33
50250;BME280;36133;42.522;27.456;2023-02-18T09:53:27;101724.06;;;21.19;30.40
50250;BME280;36133;42.522;27.456;2023-02-18T09:55:54;101655.41;;;21.61;29.26
50250;BME280;36133;42.522;27.456;2023-02-18T09:58:27;101417.81;;;22.37;25.95
50250;BME280;36133;42.522;27.456;2023-02-18T10:01:04;101691.97;;;22.84;26.89
50250;BME280;36133;42.522;27.456;2023-02-18T10:03:31;101550.53;;;21.29;27.56
50250;BME280;36133;42.522;27.456;2023-02-18T10:06:10;101397.66;;;19.99;28.36
50250;BME280;36133;42.522;27.456;2023-02-18T10:08:45;101462.13;;;21.44;26.93
50250;BME280;36133;42.522;27.456;2023-02-18T10:13:54;101676.88;;;22.46;26.94
50250;BME280;36133;42.522;27.456;2023-02-18T10:16:22;101452.84;;;20.03;28.20
50250;BME280;36133;42.522;27.456;2023-02-18T10:18:52;101639.22;;;20.03;29.73
50250;BME280;36133;42.522;27.456;2023-02-18T10:21:21;101486.72;;;19.35;29.11
50250;BME280;36133;42.522;27.456;2023-02-18T10:26:47;101599.19;;;20.02;28.99
50250;BME280;36133;42.522;27.456;2023-02-18T10:29:16;101516.22;;;19.15;29.42
50250;BME280;36133;42.522;27.456;2023-02-18T10:32:21;101430.91;;;19.54;28.35
50250;BME280;36133;42.522;27.456;2023-02-18T10:34:57;101633.59;;;21.24;27.87
50250;BME280;36133;42.522;27.456;2023-02-18T10:40:22;101607.88;;;21.07;28.11
50250;BME280;36133;42.522;27.456;2023-02-18T10:43:09;101619.16;;;20.75;29.68
50250;BME280;36133;42.522;27.456;2023-02-18T10:46:03;101569.13;;;19.52;31.79
50250;BME280;36133;42.522;27.456;2023-02-18T10:49:14;101621.41;;;19.94;31.84
50250;BME280;36133;42.522;27.456;2023-02-18T10:51:50;101533.94;;;19.55;31.76
50250;BME280;36133;42.522;27.456;2023-02-18T10:54:23;101471.16;;;18.61;32.00
50250;BME280;36133;42.522;27.456;2023-02-18T10:56:50;101623.38;;;19.12;32.57
50250;BME280;36133;42.522;27.456;2023-02-18T10:59:22;101590.50;;;19.43;32.48
50250;BME280;36133;42.522;27.456;2023-02-18T11:01:56;101469.59;;;17.70;33.71
50250;BME280;36133;42.522;27.456;2023-02-18T11:04:25;101608.66;;;17.72;34.94
50250;BME280;36133;42.522;27.456;2023-02-18T11:06:51;101569.22;;;18.57;33.93
50250;BME280;36133;42.522;27.456;2023-02-18T11:09:33;101150.03;;;16.89;32.80
50250;BME280;36133;42.522;27.456;2023-02-18T11:12:42;101426.25;;;17.80;34.03
50250;BME280;36133;42.522;27.456;2023-02-18T11:15:23;101581.31;;;18.36;34.66
50250;BME280;36133;42.522;27.456;2023-02-18T11:17:55;101190.41;;;16.60;33.28
50250;BME280;36133;42.522;27.456;2023-02-18T11:20:31;101591.69;;;19.29;33.25
50250;BME280;36133;42.522;27.456;2023-02-18T11:25:35;101428.06;;;18.00;33.63
50250;BME280;36133;42.522;27.456;2023-02-18T11:30:40;101587.22;;;18.33;32.87
50250;BME280;36133;42.522;27.456;2023-02-18T11:33:31;101602.00;;;19.02;31.68
50250;BME280;36133;42.522;27.456;2023-02-18T11:36:03;101591.06;;;19.27;30.98
50250;BME280;36133;42.522;27.456;2023-02-18T11:41:13;101448.00;;;17.49;31.60
50250;BME280;36133;42.522;27.456;2023-02-18T11:43:46;101555.50;;;18.70;31.18
50250;BME280;36133;42.522;27.456;2023-02-18T11:46:18;101592.56;;;18.66;31.34
50250;BME280;36133;42.522;27.456;2023-02-18T11:48:45;101582.63;;;18.72;31.41
50250;BME280;36133;42.522;27.456;2023-02-18T11:51:32;101585.53;;;19.09;31.10
50250;BME280;36133;42.522;27.456;2023-02-18T11:54:17;101575.75;;;18.94;31.45
50250;BME280;36133;42.522;27.456;2023-02-18T11:56:57;101503.25;;;19.03;30.47
50250;BME280;36133;42.522;27.456;2023-02-18T11:59:25;101514.44;;;18.39;31.82
50250;BME280;36133;42.522;27.456;2023-02-18T12:02:00;101582.06;;;18.57;31.93
50250;BME280;36133;42.522;27.456;2023-02-18T12:04:30;101166.00;;;16.07;31.72
50250;BME280;36133;42.522;27.456;2023-02-18T12:09:51;101558.69;;;19.67;30.48
50250;BME280;36133;42.522;27.456;2023-02-18T12:12:26;101314.53;;;18.54;29.99
50250;BME280;36133;42.522;27.456;2023-02-18T12:14:56;101339.66;;;18.19;30.72
50250;BME280;36133;42.522;27.456;2023-02-18T12:17:46;101565.31;;;19.78;30.69
50250;BME280;36133;42.522;27.456;2023-02-18T12:22:58;101562.50;;;20.33;30.10
50250;BME280;36133;42.522;27.456;2023-02-18T12:26:01;101361.97;;;18.66;30.60
50250;BME280;36133;42.522;27.456;2023-02-18T12:28:52;101562.47;;;19.84;30.67
50250;BME280;36133;42.522;27.456;2023-02-18T12:39:55;101385.16;;;18.57;30.70
50250;BME280;36133;42.522;27.456;2023-02-18T12:45:50;101544.28;;;20.08;30.40
50250;BME280;36133;42.522;27.456;2023-02-18T12:53:40;101127.75;;;18.16;29.38
50250;BME280;36133;42.522;27.456;2023-02-18T12:56:18;101527.34;;;20.30;29.88
50250;BME280;36133;42.522;27.456;2023-02-18T13:01:52;101182.34;;;18.60;29.59
50250;BME280;36133;42.522;27.456;2023-02-18T13:07:31;101231.44;;;19.21;29.83
50250;BME280;36133;42.522;27.456;2023-02-18T13:10:28;101532.44;;;20.26;30.37
50250;BME280;36133;42.522;27.456;2023-02-18T13:13:04;101482.16;;;20.32;30.07
50250;BME280;36133;42.522;27.456;2023-02-18T13:18:00;101374.31;;;19.67;30.51
50250;BME280;36133;42.522;27.456;2023-02-18T13:20:44;101290.69;;;19.16;30.87
50250;BME280;36133;42.522;27.456;2023-02-18T13:23:31;101080.88;;;17.08;32.14
50250;BME280;36133;42.522;27.456;2023-02-18T13:26:01;101482.72;;;19.56;32.16
50250;BME280;36133;42.522;27.456;2023-02-18T13:28:54;101473.56;;;19.44;32.56
50250;BME280;36133;42.522;27.456;2023-02-18T13:37:44;101489.16;;;19.00;33.30
50250;BME280;36133;42.522;27.456;2023-02-18T13:40:19;101454.28;;;19.14;33.13
50250;BME280;36133;42.522;27.456;2023-02-18T13:42:50;101265.63;;;18.21;32.41
50250;BME280;36133;42.522;27.456;2023-02-18T13:45:30;101234.91;;;17.75;32.60
50250;BME280;36133;42.522;27.456;2023-02-18T13:47:57;101478.97;;;19.32;32.92
50250;BME280;36133;42.522;27.456;2023-02-18T13:55:45;101377.34;;;18.85;32.61
50250;BME280;36133;42.522;27.456;2023-02-18T13:58:35;101466.50;;;19.73;32.60
50250;BME280;36133;42.522;27.456;2023-02-18T14:01:03;101337.16;;;18.61;32.78
50250;BME280;36133;42.522;27.456;2023-02-18T14:05:55;100982.81;;;16.57;32.86
50250;BME280;36133;42.522;27.456;2023-02-18T14:08:36;101285.97;;;18.25;33.66
50250;BME280;36133;42.522;27.456;2023-02-18T14:16:07;100993.59;;;16.45;33.70
50250;BME280;36133;42.522;27.456;2023-02-18T14:33:40;101313.28;;;19.89;30.99
50250;BME280;36133;42.522;27.456;2023-02-18T14:36:25;101431.91;;;20.50;31.38
50250;BME280;36133;42.522;27.456;2023-02-18T14:39:34;101329.59;;;19.96;31.11
50250;BME280;36133;42.522;27.456;2023-02-18T14:42:35;101429.13;;;20.38;31.65
50250;BME280;36133;42.522;27.456;2023-02-18T14:48:16;101261.09;;;21.18;29.37
50250;BME280;36133;42.522;27.456;2023-02-18T14:50:47;101424.25;;;22.43;29.18
50250;BME280;36133;42.522;27.456;2023-02-18T14:53:18;101428.94;;;21.85;30.29
50250;BME280;36133;42.522;27.456;2023-02-18T14:55:53;101436.50;;;22.35;29.27
50250;BME280;36133;42.522;27.456;2023-02-18T14:58:37;101425.63;;;22.29;29.53
50250;BME280;36133;42.522;27.456;2023-02-18T15:01:28;101273.41;;;20.75;30.44
50250;BME280;36133;42.522;27.456;2023-02-18T15:03:54;101377.97;;;21.66;29.96